sensor_id;sensor_type;location;lat;lon;timestamp;temperature;humidity
6307;DHT22;3186;54.062;9.962;2023-07-31T00:00:36;16.90;99.90
6307;DHT22;3186;54.062;9.962;2023-07-31T00:03:01;16.90;99.90
6307;DHT22;3186;54.062;9.962;2023-07-31T00:05:27;16.90;99.90
6307;DHT22;3186;54.062;9.962;2023-07-31T00:07:53;16.80;99.90
6307;DHT22;3186;54.062;9.962;2023-07-31T00:10:20;16.90;99.90
6307;DHT22;3186;54.062;9.962;2023-07-31T00:12:47;16.90;99.90
6307;DHT22;3186;54.062;9.962;2023-07-31T00:15:14;16.80;99.90
6307;DHT22;3186;54.062;9.962;2023-07-31T00:17:40;16.80;99.90
6307;DHT22;3186;54.062;9.962;2023-07-31T00:20:06;16.70;99.90
6307;DHT22;3186;54.062;9.962;2023-07-31T00:22:32;16.80;99.90
6307;DHT22;3186;54.062;9.962;2023-07-31T00:24:58;16.60;99.90
6307;DHT22;3186;54.062;9.962;2023-07-31T00:27:25;16.70;99.90
6307;DHT22;3186;54.062;9.962;2023-07-31T00:29:51;16.80;99.90
6307;DHT22;3186;54.062;9.962;2023-07-31T00:32:16;16.70;99.90
6307;DHT22;3186;54.062;9.962;2023-07-31T00:34:42;16.70;99.90
6307;DHT22;3186;54.062;9.962;2023-07-31T00:37:08;16.70;99.90
6307;DHT22;3186;54.062;9.962;2023-07-31T00:39:34;16.70;99.90
6307;DHT22;3186;54.062;9.962;2023-07-31T00:42:01;16.70;99.90
6307;DHT22;3186;54.062;9.962;2023-07-31T00:44:27;16.70;99.90
6307;DHT22;3186;54.062;9.962;2023-07-31T00:46:54;16.60;99.90
6307;DHT22;3186;54.062;9.962;2023-07-31T00:49:21;16.70;99.90
6307;DHT22;3186;54.062;9.962;2023-07-31T00:51:49;16.70;99.90
6307;DHT22;3186;54.062;9.962;2023-07-31T00:54:17;16.70;99.90
6307;DHT22;3186;54.062;9.962;2023-07-31T00:56:45;16.70;99.90
6307;DHT22;3186;54.062;9.962;2023-07-31T00:59:14;16.70;99.90
6307;DHT22;3186;54.062;9.962;2023-07-31T01:01:40;16.70;99.90
6307;DHT22;3186;54.062;9.962;2023-07-31T01:04:06;16.70;99.90
6307;DHT22;3186;54.062;9.962;2023-07-31T01:09:47;16.70;99.90
6307;DHT22;3186;54.062;9.962;2023-07-31T01:12:15;16.70;99.90
6307;DHT22;3186;54.062;9.962;2023-07-31T01:15:01;16.70;99.90
6307;DHT22;3186;54.062;9.962;2023-07-31T01:17:28;16.70;99.90
6307;DHT22;3186;54.062;9.962;2023-07-31T01:19:56;16.70;99.90
6307;DHT22;3186;54.062;9.962;2023-07-31T01:22:42;16.70;99.90
6307;DHT22;3186;54.062;9.962;2023-07-31T01:28:13;16.70;99.90
6307;DHT22;3186;54.062;9.962;2023-07-31T01:30:45;16.70;99.90
6307;DHT22;3186;54.062;9.962;2023-07-31T01:33:15;16.60;99.90
6307;DHT22;3186;54.062;9.962;2023-07-31T01:35:45;16.60;99.90
6307;DHT22;3186;54.062;9.962;2023-07-31T01:38:12;16.60;99.90
6307;DHT22;3186;54.062;9.962;2023-07-31T01:40:40;16.60;99.90
6307;DHT22;3186;54.062;9.962;2023-07-31T01:43:08;16.60;99.90
6307;DHT22;3186;54.062;9.962;2023-07-31T01:45:34;16.60;99.90
6307;DHT22;3186;54.062;9.962;2023-07-31T01:48:00;16.60;99.90
6307;DHT22;3186;54.062;9.962;2023-07-31T01:50:25;16.60;99.90
6307;DHT22;3186;54.062;9.962;2023-07-31T01:52:51;16.60;99.90
6307;DHT22;3186;54.062;9.962;2023-07-31T01:55:17;16.60;99.90
6307;DHT22;3186;54.062;9.962;2023-07-31T01:57:43;16.60;99.90
6307;DHT22;3186;54.062;9.962;2023-07-31T02:00:09;16.50;99.90
6307;DHT22;3186;54.062;9.962;2023-07-31T02:02:38;16.50;99.90
6307;DHT22;3186;54.062;9.962;2023-07-31T02:05:04;16.50;99.90
6307;DHT22;3186;54.062;9.962;2023-07-31T02:07:30;16.50;99.90
6307;DHT22;3186;54.062;9.962;2023-07-31T02:09:56;16.50;99.90
6307;DHT22;3186;54.062;9.962;2023-07-31T02:12:21;16.50;99.90
6307;DHT22;3186;54.062;9.962;2023-07-31T02:14:47;16.50;99.90
6307;DHT22;3186;54.062;9.962;2023-07-31T02:17:13;16.50;99.90
6307;DHT22;3186;54.062;9.962;2023-07-31T02:19:39;16.50;99.90
6307;DHT22;3186;54.062;9.962;2023-07-31T02:22:05;16.50;99.90
6307;DHT22;3186;54.062;9.962;2023-07-31T02:24:30;16.50;99.90
6307;DHT22;3186;54.062;9.962;2023-07-31T02:26:57;16.50;99.90
6307;DHT22;3186;54.062;9.962;2023-07-31T02:29:23;16.50;99.90
6307;DHT22;3186;54.062;9.962;2023-07-31T02:31:49;16.50;99.90
6307;DHT22;3186;54.062;9.962;2023-07-31T02:34:15;16.50;99.90
6307;DHT22;3186;54.062;9.962;2023-07-31T02:36:41;16.50;99.90
6307;DHT22;3186;54.062;9.962;2023-07-31T02:39:07;16.50;99.90
6307;DHT22;3186;54.062;9.962;2023-07-31T02:41:33;16.50;99.90
6307;DHT22;3186;54.062;9.962;2023-07-31T02:43:59;16.50;99.90
6307;DHT22;3186;54.062;9.962;2023-07-31T02:46:24;16.40;99.90
6307;DHT22;3186;54.062;9.962;2023-07-31T02:48:50;16.40;99.90
6307;DHT22;3186;54.062;9.962;2023-07-31T02:51:17;16.40;99.90
6307;DHT22;3186;54.062;9.962;2023-07-31T02:53:42;16.30;99.90
6307;DHT22;3186;54.062;9.962;2023-07-31T02:56:08;16.30;99.90
6307;DHT22;3186;54.062;9.962;2023-07-31T02:58:34;16.30;99.90
6307;DHT22;3186;54.062;9.962;2023-07-31T03:01:00;16.30;99.90
6307;DHT22;3186;54.062;9.962;2023-07-31T03:03:26;16.20;99.90
6307;DHT22;3186;54.062;9.962;2023-07-31T03:05:51;16.20;99.90
6307;DHT22;3186;54.062;9.962;2023-07-31T03:08:18;16.20;99.90
6307;DHT22;3186;54.062;9.962;2023-07-31T03:10:44;16.30;99.90
6307;DHT22;3186;54.062;9.962;2023-07-31T03:13:10;16.30;99.90
6307;DHT22;3186;54.062;9.962;2023-07-31T03:15:35;16.20;99.90
6307;DHT22;3186;54.062;9.962;2023-07-31T03:18:01;16.20;99.90
6307;DHT22;3186;54.062;9.962;2023-07-31T03:20:27;16.10;99.90
6307;DHT22;3186;54.062;9.962;2023-07-31T03:22:53;16.20;99.90
6307;DHT22;3186;54.062;9.962;2023-07-31T03:25:19;16.20;99.90
6307;DHT22;3186;54.062;9.962;2023-07-31T03:27:44;16.30;99.90
6307;DHT22;3186;54.062;9.962;2023-07-31T03:30:10;16.30;99.90
6307;DHT22;3186;54.062;9.962;2023-07-31T03:32:36;16.30;99.90
6307;DHT22;3186;54.062;9.962;2023-07-31T03:35:02;16.30;99.90
6307;DHT22;3186;54.062;9.962;2023-07-31T03:37:29;16.30;99.90
6307;DHT22;3186;54.062;9.962;2023-07-31T03:39:55;16.30;99.90
6307;DHT22;3186;54.062;9.962;2023-07-31T03:42:21;16.30;99.90
6307;DHT22;3186;54.062;9.962;2023-07-31T03:44:46;16.30;99.90
6307;DHT22;3186;54.062;9.962;2023-07-31T03:47:15;16.30;99.90
6307;DHT22;3186;54.062;9.962;2023-07-31T03:49:41;16.20;99.90
6307;DHT22;3186;54.062;9.962;2023-07-31T03:52:07;16.20;99.90
6307;DHT22;3186;54.062;9.962;2023-07-31T03:54:33;16.20;99.90
6307;DHT22;3186;54.062;9.962;2023-07-31T03:56:58;16.20;99.90
6307;DHT22;3186;54.062;9.962;2023-07-31T03:59:24;16.30;99.90
6307;DHT22;3186;54.062;9.962;2023-07-31T04:01:50;16.20;99.90
6307;DHT22;3186;54.062;9.962;2023-07-31T04:04:16;16.20;99.90
6307;DHT22;3186;54.062;9.962;2023-07-31T04:06:42;16.30;99.90
6307;DHT22;3186;54.062;9.962;2023-07-31T04:09:07;16.30;99.90
6307;DHT22;3186;54.062;9.962;2023-07-31T04:11:33;16.30;99.90
6307;DHT22;3186;54.062;9.962;2023-07-31T04:13:59;16.30;99.90
6307;DHT22;3186;54.062;9.962;2023-07-31T04:16:25;16.30;99.90
6307;DHT22;3186;54.062;9.962;2023-07-31T04:18:50;16.20;99.90
6307;DHT22;3186;54.062;9.962;2023-07-31T04:21:16;16.20;99.90
6307;DHT22;3186;54.062;9.962;2023-07-31T04:23:43;16.20;99.90
6307;DHT22;3186;54.062;9.962;2023-07-31T04:26:08;16.30;99.90
6307;DHT22;3186;54.062;9.962;2023-07-31T04:28:34;16.20;99.90
6307;DHT22;3186;54.062;9.962;2023-07-31T04:31:00;16.20;99.90
6307;DHT22;3186;54.062;9.962;2023-07-31T04:33:26;16.20;99.90
6307;DHT22;3186;54.062;9.962;2023-07-31T04:35:52;16.20;99.90
6307;DHT22;3186;54.062;9.962;2023-07-31T04:38:19;16.20;99.90
6307;DHT22;3186;54.062;9.962;2023-07-31T04:40:45;16.20;99.90
6307;DHT22;3186;54.062;9.962;2023-07-31T04:43:11;16.20;99.90
6307;DHT22;3186;54.062;9.962;2023-07-31T04:45:37;16.20;99.90
6307;DHT22;3186;54.062;9.962;2023-07-31T04:48:03;16.30;99.90
6307;DHT22;3186;54.062;9.962;2023-07-31T04:50:28;16.20;99.90
6307;DHT22;3186;54.062;9.962;2023-07-31T04:52:56;16.30;99.90
6307;DHT22;3186;54.062;9.962;2023-07-31T04:55:22;16.30;99.90
6307;DHT22;3186;54.062;9.962;2023-07-31T04:57:48;16.40;99.90
6307;DHT22;3186;54.062;9.962;2023-07-31T05:00:14;16.30;99.90
6307;DHT22;3186;54.062;9.962;2023-07-31T05:02:39;16.30;99.90
6307;DHT22;3186;54.062;9.962;2023-07-31T05:05:05;16.30;99.90
6307;DHT22;3186;54.062;9.962;2023-07-31T05:07:31;16.40;99.90
6307;DHT22;3186;54.062;9.962;2023-07-31T05:09:57;16.40;99.90
6307;DHT22;3186;54.062;9.962;2023-07-31T05:12:22;16.30;99.90
6307;DHT22;3186;54.062;9.962;2023-07-31T05:14:48;16.30;99.90
6307;DHT22;3186;54.062;9.962;2023-07-31T05:17:14;16.30;99.90
6307;DHT22;3186;54.062;9.962;2023-07-31T05:19:40;16.30;99.90
6307;DHT22;3186;54.062;9.962;2023-07-31T05:22:06;16.40;99.90
6307;DHT22;3186;54.062;9.962;2023-07-31T05:24:31;16.40;99.90
6307;DHT22;3186;54.062;9.962;2023-07-31T05:26:57;16.40;99.90
6307;DHT22;3186;54.062;9.962;2023-07-31T05:29:23;16.50;99.90
6307;DHT22;3186;54.062;9.962;2023-07-31T05:31:49;16.40;99.90
6307;DHT22;3186;54.062;9.962;2023-07-31T05:34:14;16.40;99.90
6307;DHT22;3186;54.062;9.962;2023-07-31T05:36:40;16.50;99.90
6307;DHT22;3186;54.062;9.962;2023-07-31T05:39:06;16.40;99.90
6307;DHT22;3186;54.062;9.962;2023-07-31T05:41:34;16.40;99.90
6307;DHT22;3186;54.062;9.962;2023-07-31T05:44:03;16.50;99.90
6307;DHT22;3186;54.062;9.962;2023-07-31T05:46:29;16.40;99.90
6307;DHT22;3186;54.062;9.962;2023-07-31T05:48:56;16.50;99.90
6307;DHT22;3186;54.062;9.962;2023-07-31T05:51:22;16.50;99.90
6307;DHT22;3186;54.062;9.962;2023-07-31T05:53:48;16.40;99.90
6307;DHT22;3186;54.062;9.962;2023-07-31T05:56:14;16.40;99.90
6307;DHT22;3186;54.062;9.962;2023-07-31T05:58:40;16.40;99.90
6307;DHT22;3186;54.062;9.962;2023-07-31T06:01:05;16.40;99.90
6307;DHT22;3186;54.062;9.962;2023-07-31T06:03:31;16.50;99.90
6307;DHT22;3186;54.062;9.962;2023-07-31T06:05:57;16.50;99.90
6307;DHT22;3186;54.062;9.962;2023-07-31T06:08:23;16.60;99.90
6307;DHT22;3186;54.062;9.962;2023-07-31T06:10:48;16.60;99.90
6307;DHT22;3186;54.062;9.962;2023-07-31T06:13:14;16.60;99.90
6307;DHT22;3186;54.062;9.962;2023-07-31T06:15:40;16.60;99.90
6307;DHT22;3186;54.062;9.962;2023-07-31T06:18:06;16.60;99.90
6307;DHT22;3186;54.062;9.962;2023-07-31T06:20:34;16.60;99.90
6307;DHT22;3186;54.062;9.962;2023-07-31T06:23:00;16.50;99.90
6307;DHT22;3186;54.062;9.962;2023-07-31T06:25:25;16.60;99.90
6307;DHT22;3186;54.062;9.962;2023-07-31T06:27:51;16.60;99.90
6307;DHT22;3186;54.062;9.962;2023-07-31T06:30:17;16.70;99.90
6307;DHT22;3186;54.062;9.962;2023-07-31T06:32:43;16.70;99.90
6307;DHT22;3186;54.062;9.962;2023-07-31T06:35:08;16.70;99.90
6307;DHT22;3186;54.062;9.962;2023-07-31T06:37:34;16.60;99.90
6307;DHT22;3186;54.062;9.962;2023-07-31T06:40:00;16.70;99.90
6307;DHT22;3186;54.062;9.962;2023-07-31T06:42:26;16.70;99.90
6307;DHT22;3186;54.062;9.962;2023-07-31T06:44:52;16.70;99.90
6307;DHT22;3186;54.062;9.962;2023-07-31T06:47:18;16.70;99.90
6307;DHT22;3186;54.062;9.962;2023-07-31T06:49:43;16.70;99.90
6307;DHT22;3186;54.062;9.962;2023-07-31T06:52:09;16.70;99.90
6307;DHT22;3186;54.062;9.962;2023-07-31T06:54:36;16.70;99.90
6307;DHT22;3186;54.062;9.962;2023-07-31T06:57:02;16.70;99.90
6307;DHT22;3186;54.062;9.962;2023-07-31T06:59:29;16.70;99.90
6307;DHT22;3186;54.062;9.962;2023-07-31T07:01:54;16.70;99.90
6307;DHT22;3186;54.062;9.962;2023-07-31T07:04:20;16.70;99.90
6307;DHT22;3186;54.062;9.962;2023-07-31T07:06:47;16.80;99.90
6307;DHT22;3186;54.062;9.962;2023-07-31T07:09:13;16.80;99.90
6307;DHT22;3186;54.062;9.962;2023-07-31T07:11:38;16.80;99.90
6307;DHT22;3186;54.062;9.962;2023-07-31T07:14:04;16.70;99.90
6307;DHT22;3186;54.062;9.962;2023-07-31T07:16:30;16.80;99.90
6307;DHT22;3186;54.062;9.962;2023-07-31T07:18:56;16.80;99.90
6307;DHT22;3186;54.062;9.962;2023-07-31T07:21:22;16.80;99.90
6307;DHT22;3186;54.062;9.962;2023-07-31T07:23:48;16.80;99.90
6307;DHT22;3186;54.062;9.962;2023-07-31T07:26:14;16.80;99.90
6307;DHT22;3186;54.062;9.962;2023-07-31T07:28:39;16.80;99.90
6307;DHT22;3186;54.062;9.962;2023-07-31T07:31:05;16.80;99.90
6307;DHT22;3186;54.062;9.962;2023-07-31T07:33:31;16.80;99.90
6307;DHT22;3186;54.062;9.962;2023-07-31T07:36:00;16.80;99.90
6307;DHT22;3186;54.062;9.962;2023-07-31T07:38:27;16.80;99.90
6307;DHT22;3186;54.062;9.962;2023-07-31T07:40:52;16.70;99.90
6307;DHT22;3186;54.062;9.962;2023-07-31T07:43:19;16.60;99.90
6307;DHT22;3186;54.062;9.962;2023-07-31T07:45:44;16.70;99.90
6307;DHT22;3186;54.062;9.962;2023-07-31T07:48:10;16.80;99.90
6307;DHT22;3186;54.062;9.962;2023-07-31T07:50:38;16.70;99.90
6307;DHT22;3186;54.062;9.962;2023-07-31T07:53:04;16.70;99.90
6307;DHT22;3186;54.062;9.962;2023-07-31T07:55:30;16.80;99.90
6307;DHT22;3186;54.062;9.962;2023-07-31T07:57:56;16.80;99.90
6307;DHT22;3186;54.062;9.962;2023-07-31T08:00:21;16.80;99.90
6307;DHT22;3186;54.062;9.962;2023-07-31T08:02:47;16.80;99.90
6307;DHT22;3186;54.062;9.962;2023-07-31T08:05:13;16.90;99.90
6307;DHT22;3186;54.062;9.962;2023-07-31T08:07:39;16.90;99.90
6307;DHT22;3186;54.062;9.962;2023-07-31T08:10:05;16.90;99.90
6307;DHT22;3186;54.062;9.962;2023-07-31T08:12:31;16.90;99.90
6307;DHT22;3186;54.062;9.962;2023-07-31T08:14:56;16.90;99.90
6307;DHT22;3186;54.062;9.962;2023-07-31T08:17:23;17.00;99.90
6307;DHT22;3186;54.062;9.962;2023-07-31T08:19:48;17.00;99.90
6307;DHT22;3186;54.062;9.962;2023-07-31T08:22:14;17.00;99.90
6307;DHT22;3186;54.062;9.962;2023-07-31T08:24:40;17.00;99.90
6307;DHT22;3186;54.062;9.962;2023-07-31T08:27:06;17.00;99.90
6307;DHT22;3186;54.062;9.962;2023-07-31T08:29:32;17.00;99.90
6307;DHT22;3186;54.062;9.962;2023-07-31T08:31:57;17.00;99.90
6307;DHT22;3186;54.062;9.962;2023-07-31T08:34:23;17.10;99.90
6307;DHT22;3186;54.062;9.962;2023-07-31T08:36:49;17.20;99.90
6307;DHT22;3186;54.062;9.962;2023-07-31T08:39:15;17.10;99.90
6307;DHT22;3186;54.062;9.962;2023-07-31T08:41:40;17.20;99.90
6307;DHT22;3186;54.062;9.962;2023-07-31T08:44:10;17.20;99.90
6307;DHT22;3186;54.062;9.962;2023-07-31T08:46:37;17.20;99.90
6307;DHT22;3186;54.062;9.962;2023-07-31T08:49:07;17.10;99.90
6307;DHT22;3186;54.062;9.962;2023-07-31T08:51:37;17.30;99.90
6307;DHT22;3186;54.062;9.962;2023-07-31T08:54:03;17.30;99.90
6307;DHT22;3186;54.062;9.962;2023-07-31T08:56:32;17.30;99.90
6307;DHT22;3186;54.062;9.962;2023-07-31T08:59:00;17.30;99.90
6307;DHT22;3186;54.062;9.962;2023-07-31T09:01:29;17.30;99.90
6307;DHT22;3186;54.062;9.962;2023-07-31T09:03:55;17.40;99.90
6307;DHT22;3186;54.062;9.962;2023-07-31T09:06:23;17.30;99.90
6307;DHT22;3186;54.062;9.962;2023-07-31T09:08:50;17.30;99.90
6307;DHT22;3186;54.062;9.962;2023-07-31T09:11:16;17.40;99.90
6307;DHT22;3186;54.062;9.962;2023-07-31T09:13:43;17.50;99.90
6307;DHT22;3186;54.062;9.962;2023-07-31T09:16:09;17.50;99.90
6307;DHT22;3186;54.062;9.962;2023-07-31T09:19:05;17.50;99.90
6307;DHT22;3186;54.062;9.962;2023-07-31T09:21:31;17.50;99.90
6307;DHT22;3186;54.062;9.962;2023-07-31T09:23:57;17.60;99.90
6307;DHT22;3186;54.062;9.962;2023-07-31T09:29:00;17.50;99.90
6307;DHT22;3186;54.062;9.962;2023-07-31T09:31:40;17.60;99.90
6307;DHT22;3186;54.062;9.962;2023-07-31T09:34:09;17.60;99.90
6307;DHT22;3186;54.062;9.962;2023-07-31T09:36:47;17.70;99.90
6307;DHT22;3186;54.062;9.962;2023-07-31T09:39:15;17.70;99.90
6307;DHT22;3186;54.062;9.962;2023-07-31T09:42:03;17.80;99.90
6307;DHT22;3186;54.062;9.962;2023-07-31T09:44:40;17.80;99.90
6307;DHT22;3186;54.062;9.962;2023-07-31T09:47:06;17.80;99.90
6307;DHT22;3186;54.062;9.962;2023-07-31T09:49:32;17.90;99.90
6307;DHT22;3186;54.062;9.962;2023-07-31T09:51:58;18.00;99.90
6307;DHT22;3186;54.062;9.962;2023-07-31T09:54:23;17.90;99.90
6307;DHT22;3186;54.062;9.962;2023-07-31T09:56:49;17.70;99.90
6307;DHT22;3186;54.062;9.962;2023-07-31T09:59:17;17.80;99.90
6307;DHT22;3186;54.062;9.962;2023-07-31T10:01:44;17.80;99.90
6307;DHT22;3186;54.062;9.962;2023-07-31T10:04:12;17.90;99.90
6307;DHT22;3186;54.062;9.962;2023-07-31T10:06:38;17.90;99.90
6307;DHT22;3186;54.062;9.962;2023-07-31T10:09:09;17.80;99.90
6307;DHT22;3186;54.062;9.962;2023-07-31T10:11:51;17.90;99.90
6307;DHT22;3186;54.062;9.962;2023-07-31T10:14:21;18.00;99.90
6307;DHT22;3186;54.062;9.962;2023-07-31T10:16:49;18.10;99.90
6307;DHT22;3186;54.062;9.962;2023-07-31T10:19:17;18.00;99.90
6307;DHT22;3186;54.062;9.962;2023-07-31T10:21:43;18.00;99.90
6307;DHT22;3186;54.062;9.962;2023-07-31T10:24:09;18.00;99.90
6307;DHT22;3186;54.062;9.962;2023-07-31T10:26:35;18.10;99.90
6307;DHT22;3186;54.062;9.962;2023-07-31T10:29:04;18.00;99.90
6307;DHT22;3186;54.062;9.962;2023-07-31T10:31:31;18.10;99.90
6307;DHT22;3186;54.062;9.962;2023-07-31T10:33:58;18.10;99.90
6307;DHT22;3186;54.062;9.962;2023-07-31T10:36:25;18.10;99.90
6307;DHT22;3186;54.062;9.962;2023-07-31T10:38:52;18.10;99.90
6307;DHT22;3186;54.062;9.962;2023-07-31T10:41:18;18.00;99.90
6307;DHT22;3186;54.062;9.962;2023-07-31T10:43:46;18.10;99.90
6307;DHT22;3186;54.062;9.962;2023-07-31T10:46:13;18.00;99.90
6307;DHT22;3186;54.062;9.962;2023-07-31T10:48:40;18.10;99.90
6307;DHT22;3186;54.062;9.962;2023-07-31T10:51:12;18.20;99.90
6307;DHT22;3186;54.062;9.962;2023-07-31T10:53:39;18.10;99.90
6307;DHT22;3186;54.062;9.962;2023-07-31T10:56:09;18.20;99.90
6307;DHT22;3186;54.062;9.962;2023-07-31T10:58:38;18.20;99.90
6307;DHT22;3186;54.062;9.962;2023-07-31T11:01:05;18.10;99.90
6307;DHT22;3186;54.062;9.962;2023-07-31T11:06:09;18.10;99.90
6307;DHT22;3186;54.062;9.962;2023-07-31T11:08:47;18.20;99.90
6307;DHT22;3186;54.062;9.962;2023-07-31T11:11:19;18.20;99.90
6307;DHT22;3186;54.062;9.962;2023-07-31T11:13:52;18.10;99.90
6307;DHT22;3186;54.062;9.962;2023-07-31T11:16:23;18.20;99.90
6307;DHT22;3186;54.062;9.962;2023-07-31T11:18:50;18.20;99.90
6307;DHT22;3186;54.062;9.962;2023-07-31T11:21:26;18.20;99.90
6307;DHT22;3186;54.062;9.962;2023-07-31T11:23:54;18.30;99.90
6307;DHT22;3186;54.062;9.962;2023-07-31T11:26:23;18.20;99.90
6307;DHT22;3186;54.062;9.962;2023-07-31T11:28:50;18.30;99.90
6307;DHT22;3186;54.062;9.962;2023-07-31T11:31:17;18.30;99.90
6307;DHT22;3186;54.062;9.962;2023-07-31T11:33:43;18.30;99.90
6307;DHT22;3186;54.062;9.962;2023-07-31T11:36:20;18.40;99.90
6307;DHT22;3186;54.062;9.962;2023-07-31T11:38:46;18.40;99.90
6307;DHT22;3186;54.062;9.962;2023-07-31T11:41:14;18.40;99.90
6307;DHT22;3186;54.062;9.962;2023-07-31T11:43:41;18.30;99.90
6307;DHT22;3186;54.062;9.962;2023-07-31T11:46:07;18.30;99.90
6307;DHT22;3186;54.062;9.962;2023-07-31T11:48:34;18.40;99.90
6307;DHT22;3186;54.062;9.962;2023-07-31T11:51:06;18.40;99.90
6307;DHT22;3186;54.062;9.962;2023-07-31T11:56:09;18.50;99.90
6307;DHT22;3186;54.062;9.962;2023-07-31T11:58:37;18.50;99.90
6307;DHT22;3186;54.062;9.962;2023-07-31T12:01:04;18.40;99.90
6307;DHT22;3186;54.062;9.962;2023-07-31T12:03:31;18.40;99.90
6307;DHT22;3186;54.062;9.962;2023-07-31T12:05:59;18.40;99.90
6307;DHT22;3186;54.062;9.962;2023-07-31T12:08:25;18.50;99.90
6307;DHT22;3186;54.062;9.962;2023-07-31T12:10:52;18.50;99.90
6307;DHT22;3186;54.062;9.962;2023-07-31T12:13:25;18.50;99.90
6307;DHT22;3186;54.062;9.962;2023-07-31T12:15:56;18.50;99.90
6307;DHT22;3186;54.062;9.962;2023-07-31T12:18:23;18.40;99.90
6307;DHT22;3186;54.062;9.962;2023-07-31T12:20:55;18.40;99.90
6307;DHT22;3186;54.062;9.962;2023-07-31T12:23:30;18.40;99.90
6307;DHT22;3186;54.062;9.962;2023-07-31T12:28:44;18.40;99.90
6307;DHT22;3186;54.062;9.962;2023-07-31T12:31:12;18.40;99.90
6307;DHT22;3186;54.062;9.962;2023-07-31T12:33:40;18.40;99.90
6307;DHT22;3186;54.062;9.962;2023-07-31T12:36:14;18.30;99.90
6307;DHT22;3186;54.062;9.962;2023-07-31T12:38:42;18.30;99.90
6307;DHT22;3186;54.062;9.962;2023-07-31T12:41:08;18.40;99.90
6307;DHT22;3186;54.062;9.962;2023-07-31T12:43:34;18.40;99.90
6307;DHT22;3186;54.062;9.962;2023-07-31T12:46:01;18.40;99.90
6307;DHT22;3186;54.062;9.962;2023-07-31T12:48:26;18.40;99.90
6307;DHT22;3186;54.062;9.962;2023-07-31T12:50:52;18.40;99.90
6307;DHT22;3186;54.062;9.962;2023-07-31T12:53:18;18.50;99.90
6307;DHT22;3186;54.062;9.962;2023-07-31T12:55:44;18.50;99.90
6307;DHT22;3186;54.062;9.962;2023-07-31T12:58:10;18.40;99.90
6307;DHT22;3186;54.062;9.962;2023-07-31T13:00:36;18.50;99.90
6307;DHT22;3186;54.062;9.962;2023-07-31T13:03:02;18.50;99.90
6307;DHT22;3186;54.062;9.962;2023-07-31T13:05:28;18.50;99.90
6307;DHT22;3186;54.062;9.962;2023-07-31T13:07:55;18.60;99.90
6307;DHT22;3186;54.062;9.962;2023-07-31T13:10:21;18.60;99.90
6307;DHT22;3186;54.062;9.962;2023-07-31T13:12:47;18.60;99.90
6307;DHT22;3186;54.062;9.962;2023-07-31T13:15:14;18.70;99.90
6307;DHT22;3186;54.062;9.962;2023-07-31T13:17:40;18.70;99.90
6307;DHT22;3186;54.062;9.962;2023-07-31T13:20:06;18.70;99.90
6307;DHT22;3186;54.062;9.962;2023-07-31T13:22:32;18.70;99.90
6307;DHT22;3186;54.062;9.962;2023-07-31T13:24:58;18.60;99.90
6307;DHT22;3186;54.062;9.962;2023-07-31T13:27:24;18.50;99.90
6307;DHT22;3186;54.062;9.962;2023-07-31T13:29:53;18.60;99.90
6307;DHT22;3186;54.062;9.962;2023-07-31T13:32:20;18.60;99.90
6307;DHT22;3186;54.062;9.962;2023-07-31T13:34:46;18.70;99.90
6307;DHT22;3186;54.062;9.962;2023-07-31T13:37:13;18.80;99.90
6307;DHT22;3186;54.062;9.962;2023-07-31T13:39:39;18.80;99.90
6307;DHT22;3186;54.062;9.962;2023-07-31T13:42:06;17.50;99.90
6307;DHT22;3186;54.062;9.962;2023-07-31T13:44:40;18.80;99.90
6307;DHT22;3186;54.062;9.962;2023-07-31T13:47:07;18.90;99.90
6307;DHT22;3186;54.062;9.962;2023-07-31T13:49:33;18.90;99.90
6307;DHT22;3186;54.062;9.962;2023-07-31T13:51:59;19.00;99.90
6307;DHT22;3186;54.062;9.962;2023-07-31T13:54:25;19.00;99.90
6307;DHT22;3186;54.062;9.962;2023-07-31T13:56:52;19.10;99.90
6307;DHT22;3186;54.062;9.962;2023-07-31T13:59:18;19.00;99.90
6307;DHT22;3186;54.062;9.962;2023-07-31T14:01:44;19.00;99.90
6307;DHT22;3186;54.062;9.962;2023-07-31T14:04:10;19.00;99.90
6307;DHT22;3186;54.062;9.962;2023-07-31T14:06:36;19.00;99.90
6307;DHT22;3186;54.062;9.962;2023-07-31T14:09:02;19.00;99.90
6307;DHT22;3186;54.062;9.962;2023-07-31T14:11:28;19.00;99.90
6307;DHT22;3186;54.062;9.962;2023-07-31T14:13:55;19.00;99.90
6307;DHT22;3186;54.062;9.962;2023-07-31T14:16:22;18.90;99.90
6307;DHT22;3186;54.062;9.962;2023-07-31T14:18:48;18.80;99.90
6307;DHT22;3186;54.062;9.962;2023-07-31T14:21:14;18.90;99.90
6307;DHT22;3186;54.062;9.962;2023-07-31T14:23:40;18.90;99.90
6307;DHT22;3186;54.062;9.962;2023-07-31T14:26:06;19.00;99.90
6307;DHT22;3186;54.062;9.962;2023-07-31T14:28:32;19.00;99.90
6307;DHT22;3186;54.062;9.962;2023-07-31T14:30:58;18.90;99.90
6307;DHT22;3186;54.062;9.962;2023-07-31T14:33:24;18.80;99.90
6307;DHT22;3186;54.062;9.962;2023-07-31T14:35:50;18.80;99.90
6307;DHT22;3186;54.062;9.962;2023-07-31T14:38:16;18.70;99.90
6307;DHT22;3186;54.062;9.962;2023-07-31T14:40:42;18.60;99.90
6307;DHT22;3186;54.062;9.962;2023-07-31T14:43:08;18.70;99.90
6307;DHT22;3186;54.062;9.962;2023-07-31T14:45:33;18.70;99.90
6307;DHT22;3186;54.062;9.962;2023-07-31T14:47:59;18.70;99.90
6307;DHT22;3186;54.062;9.962;2023-07-31T14:50:25;18.80;99.90
6307;DHT22;3186;54.062;9.962;2023-07-31T14:55:28;18.90;99.90
6307;DHT22;3186;54.062;9.962;2023-07-31T14:57:54;18.90;99.90
6307;DHT22;3186;54.062;9.962;2023-07-31T15:00:20;18.80;99.90
6307;DHT22;3186;54.062;9.962;2023-07-31T15:02:46;18.90;99.90
6307;DHT22;3186;54.062;9.962;2023-07-31T15:05:11;18.90;99.90
6307;DHT22;3186;54.062;9.962;2023-07-31T15:07:37;18.90;99.90
6307;DHT22;3186;54.062;9.962;2023-07-31T15:10:04;18.90;99.90
6307;DHT22;3186;54.062;9.962;2023-07-31T15:12:30;18.80;99.90
6307;DHT22;3186;54.062;9.962;2023-07-31T15:14:56;18.70;99.90
6307;DHT22;3186;54.062;9.962;2023-07-31T15:17:21;18.70;99.90
6307;DHT22;3186;54.062;9.962;2023-07-31T15:19:47;18.70;99.90
6307;DHT22;3186;54.062;9.962;2023-07-31T15:22:13;18.90;99.90
6307;DHT22;3186;54.062;9.962;2023-07-31T15:24:39;19.00;99.90
6307;DHT22;3186;54.062;9.962;2023-07-31T15:27:05;19.10;99.90
6307;DHT22;3186;54.062;9.962;2023-07-31T15:29:31;19.00;99.90
6307;DHT22;3186;54.062;9.962;2023-07-31T15:31:58;19.20;99.90
6307;DHT22;3186;54.062;9.962;2023-07-31T15:34:24;19.20;99.90
6307;DHT22;3186;54.062;9.962;2023-07-31T15:36:50;19.20;99.90
6307;DHT22;3186;54.062;9.962;2023-07-31T15:39:16;19.20;99.90
6307;DHT22;3186;54.062;9.962;2023-07-31T15:41:42;19.30;99.90
6307;DHT22;3186;54.062;9.962;2023-07-31T15:44:08;19.30;99.90
6307;DHT22;3186;54.062;9.962;2023-07-31T15:46:34;19.40;99.90
6307;DHT22;3186;54.062;9.962;2023-07-31T15:49:00;19.40;99.90
6307;DHT22;3186;54.062;9.962;2023-07-31T15:51:25;19.40;99.90
6307;DHT22;3186;54.062;9.962;2023-07-31T15:53:52;19.40;99.90
6307;DHT22;3186;54.062;9.962;2023-07-31T15:56:18;19.50;99.90
6307;DHT22;3186;54.062;9.962;2023-07-31T15:58:44;19.50;99.90
6307;DHT22;3186;54.062;9.962;2023-07-31T16:01:09;19.50;99.90
6307;DHT22;3186;54.062;9.962;2023-07-31T16:03:35;19.50;99.90
6307;DHT22;3186;54.062;9.962;2023-07-31T16:06:01;19.50;99.90
6307;DHT22;3186;54.062;9.962;2023-07-31T16:08:27;19.50;99.90
6307;DHT22;3186;54.062;9.962;2023-07-31T16:10:53;19.60;99.90
6307;DHT22;3186;54.062;9.962;2023-07-31T16:13:18;21.00;99.90
6307;DHT22;3186;54.062;9.962;2023-07-31T16:15:44;19.60;99.90
6307;DHT22;3186;54.062;9.962;2023-07-31T16:18:10;19.60;99.90